createdAt,value
2019-02-25T00:00:11.763Z,10.97
2019-02-25T00:02:40.181Z,10.70
2019-02-25T00:05:08.960Z,10.17
2019-02-25T00:07:37.508Z,10.40
2019-02-25T00:10:09.151Z,10.50
2019-02-25T00:12:37.551Z,10.50
2019-02-25T00:15:08.367Z,10.40
2019-02-25T00:17:36.789Z,10.67
2019-02-25T00:20:08.449Z,10.23
2019-02-25T00:22:36.884Z,9.93
2019-02-25T00:25:07.717Z,9.83
2019-02-25T00:27:36.116Z,9.93
2019-02-25T00:30:12.553Z,10.17
2019-02-25T00:32:40.954Z,10.60
2019-02-25T00:35:09.354Z,10.03
2019-02-25T00:37:37.839Z,10.67
2019-02-25T00:40:08.374Z,9.87
2019-02-25T00:42:36.807Z,10.07
2019-02-25T00:45:08.305Z,10.03
2019-02-25T00:47:36.742Z,9.97
2019-02-25T00:50:11.177Z,9.27
2019-02-25T00:52:39.579Z,10.20
2019-02-25T00:55:08.719Z,9.40
2019-02-25T00:57:37.111Z,10.27
2019-02-25T01:00:14.102Z,9.97
2019-02-25T01:02:42.525Z,8.93
2019-02-25T01:05:10.924Z,10.00
2019-02-25T01:07:39.387Z,9.17
2019-02-25T01:10:11.769Z,9.47
2019-02-25T01:12:40.539Z,9.57
2019-02-25T01:15:09.109Z,10.23
2019-02-25T01:17:37.520Z,9.47
2019-02-25T01:20:08.596Z,9.27
2019-02-25T01:22:36.999Z,9.27
2019-02-25T01:25:10.527Z,8.73
2019-02-25T01:27:38.972Z,8.97
2019-02-25T01:30:12.606Z,9.27
2019-02-25T01:32:41.001Z,9.83
2019-02-25T01:35:13.196Z,8.90
2019-02-25T01:37:41.588Z,9.87
2019-02-25T01:40:16.063Z,9.50
2019-02-25T01:42:44.459Z,9.30
2019-02-25T01:45:15.164Z,9.23
2019-02-25T01:47:43.637Z,9.27
2019-02-25T01:50:12.201Z,9.10
2019-02-25T01:52:40.609Z,8.90
2019-02-25T01:55:11.618Z,9.30
2019-02-25T01:57:40.017Z,9.10
2019-02-25T02:00:13.506Z,8.83
2019-02-25T02:02:41.898Z,9.40
2019-02-25T02:05:10.299Z,8.97
2019-02-25T02:07:38.698Z,9.27
2019-02-25T02:10:09.832Z,9.10
2019-02-25T02:12:38.245Z,8.70
2019-02-25T02:15:12.618Z,8.40
2019-02-25T02:17:41.010Z,8.83
2019-02-25T02:20:11.955Z,9.17
2019-02-25T02:22:40.347Z,8.37
2019-02-25T02:25:10.193Z,8.77
2019-02-25T02:27:38.639Z,9.53
2019-02-25T02:30:10.324Z,8.43
2019-02-25T02:32:38.787Z,8.33
2019-02-25T02:35:07.621Z,8.90
2019-02-25T02:37:36.023Z,8.27
2019-02-25T02:40:06.660Z,8.30
2019-02-25T02:42:35.053Z,7.93
2019-02-25T02:45:05.460Z,9.20
2019-02-25T02:47:40.487Z,8.47
2019-02-25T02:50:12.237Z,7.70
2019-02-25T02:52:40.622Z,9.23
2019-02-25T02:55:09.339Z,8.30
2019-02-25T02:57:37.734Z,8.20
2019-02-25T03:00:12.230Z,9.17
2019-02-25T03:02:40.624Z,8.33
2019-02-25T03:05:11.583Z,8.93
2019-02-25T03:07:39.981Z,8.33
2019-02-25T03:10:10.752Z,8.40
2019-02-25T03:12:39.141Z,8.57
2019-02-25T03:15:10.822Z,8.63
2019-02-25T03:17:39.220Z,9.30
2019-02-25T03:20:10.271Z,8.23
2019-02-25T03:22:38.672Z,8.53
2019-02-25T03:25:09.616Z,8.73
2019-02-25T03:27:38.015Z,7.90
2019-02-25T03:30:12.580Z,8.83
2019-02-25T03:32:40.972Z,8.57
2019-02-25T03:35:09.512Z,8.97
2019-02-25T03:37:37.913Z,8.17
2019-02-25T03:40:11.858Z,8.10
2019-02-25T03:42:40.329Z,8.83
2019-02-25T03:45:16.262Z,8.63
2019-02-25T03:47:44.656Z,8.10
2019-02-25T03:50:13.131Z,8.20
2019-02-25T03:52:41.797Z,8.67
2019-02-25T03:55:18.229Z,7.87
2019-02-25T03:57:46.667Z,9.20
2019-02-25T04:00:21.232Z,8.53
2019-02-25T04:02:49.631Z,8.10
2019-02-25T04:05:18.037Z,8.80
2019-02-25T04:07:46.451Z,8.13
2019-02-25T04:10:15.412Z,8.27
2019-02-25T04:12:43.818Z,8.37
2019-02-25T04:15:15.905Z,8.20
2019-02-25T04:17:44.292Z,8.40
2019-02-25T04:20:14.751Z,8.83
2019-02-25T04:22:43.318Z,8.27
2019-02-25T04:25:11.910Z,7.90
2019-02-25T04:27:40.314Z,8.27
2019-02-25T04:30:13.896Z,8.10
2019-02-25T04:32:42.288Z,8.90
2019-02-25T04:35:11.445Z,8.20
2019-02-25T04:37:39.839Z,8.40
2019-02-25T04:40:13.031Z,8.17
2019-02-25T04:42:41.443Z,7.70
2019-02-25T04:45:12.498Z,8.13
2019-02-25T04:47:40.919Z,7.90
2019-02-25T04:50:10.970Z,7.77
2019-02-25T04:52:39.365Z,8.40
2019-02-25T04:55:09.755Z,8.40
2019-02-25T04:57:38.314Z,8.70
2019-02-25T05:00:13.147Z,7.60
2019-02-25T05:02:41.534Z,7.90
2019-02-25T05:05:09.948Z,8.70
2019-02-25T05:07:38.349Z,8.73
2019-02-25T05:10:09.914Z,8.57
2019-02-25T05:12:39.387Z,8.63
2019-02-25T05:15:09.295Z,9.27
2019-02-25T05:17:37.684Z,8.67
2019-02-25T05:20:07.033Z,8.20
2019-02-25T05:22:37.527Z,8.43
2019-02-25T05:25:08.155Z,8.27
2019-02-25T05:27:36.547Z,8.23
2019-02-25T05:30:08.690Z,8.87
2019-02-25T05:32:37.367Z,9.60
2019-02-25T05:35:07.917Z,10.83
2019-02-25T05:37:36.317Z,10.73
2019-02-25T05:40:07.453Z,9.23
2019-02-25T05:42:35.850Z,8.97
2019-02-25T05:45:04.903Z,8.83
2019-02-25T05:47:33.377Z,9.13
2019-02-25T05:50:01.797Z,8.80
2019-02-25T05:52:30.206Z,9.10
2019-02-25T05:54:58.640Z,8.80
2019-02-25T05:57:27.036Z,8.50
2019-02-25T05:59:56.908Z,8.80
2019-02-25T06:02:25.311Z,9.73
2019-02-25T06:04:53.740Z,9.80
2019-02-25T06:07:22.221Z,9.50
2019-02-25T06:09:50.652Z,9.63
2019-02-25T06:12:19.057Z,9.60
2019-02-25T06:14:47.498Z,10.00
2019-02-25T06:17:15.910Z,10.67
2019-02-25T06:19:44.312Z,11.40
2019-02-25T06:22:12.716Z,10.77
2019-02-25T06:24:41.123Z,10.40
2019-02-25T06:27:09.528Z,11.17
2019-02-25T06:29:37.923Z,10.17
2019-02-25T06:32:06.326Z,10.57
2019-02-25T06:34:34.739Z,11.10
2019-02-25T06:37:03.154Z,10.70
2019-02-25T06:39:31.561Z,11.10
2019-02-25T06:41:59.991Z,11.30
2019-02-25T06:44:28.404Z,12.97
2019-02-25T06:46:56.798Z,13.60
2019-02-25T06:49:25.213Z,15.03
2019-02-25T06:51:53.612Z,15.07
2019-02-25T06:54:22.010Z,16.20
2019-02-25T06:56:50.413Z,16.57
2019-02-25T06:59:18.880Z,18.60
2019-02-25T07:01:47.362Z,17.73
2019-02-25T07:04:35.664Z,18.97
2019-02-25T07:07:08.858Z,19.80
2019-02-25T07:09:54.011Z,21.10
2019-02-25T07:12:36.330Z,22.90
2019-02-25T07:15:07.928Z,23.90
2019-02-25T07:17:54.453Z,23.67
2019-02-25T07:20:33.518Z,24.60
2019-02-25T07:23:03.571Z,26.33
2019-02-25T07:25:39.315Z,25.53
2019-02-25T07:28:24.420Z,25.40
2019-02-25T07:31:12.382Z,25.87
2019-02-25T07:33:48.288Z,25.50
2019-02-25T07:36:24.311Z,26.43
2019-02-25T07:39:03.731Z,26.67
2019-02-25T07:41:38.182Z,24.67
2019-02-25T07:44:11.301Z,24.87
2019-02-25T07:46:43.795Z,23.77
2019-02-25T07:49:25.966Z,24.57
2019-02-25T07:52:05.109Z,24.70
2019-02-25T07:54:41.353Z,24.40
2019-02-25T07:59:44.943Z,24.10
2019-02-25T08:02:14.985Z,23.97
2019-02-25T08:04:45.031Z,23.83
2019-02-25T08:07:17.684Z,25.23
2019-02-25T08:09:53.816Z,24.23
2019-02-25T08:12:26.665Z,24.50
2019-02-25T08:14:56.798Z,24.80
2019-02-25T08:17:29.786Z,23.50
2019-02-25T08:20:08.873Z,24.60
2019-02-25T08:22:41.489Z,24.13
2019-02-25T08:25:27.599Z,23.53
2019-02-25T08:27:57.638Z,23.73
2019-02-25T08:30:42.718Z,23.57
2019-02-25T08:33:18.462Z,23.10
2019-02-25T08:36:09.806Z,23.30
2019-02-25T08:38:56.204Z,22.30
2019-02-25T08:41:26.484Z,22.57
2019-02-25T08:43:59.135Z,22.30
2019-02-25T08:46:29.189Z,22.00
2019-02-25T08:48:59.245Z,21.40
2019-02-25T08:51:27.687Z,21.30
2019-02-25T08:53:56.087Z,20.87
2019-02-25T08:56:24.523Z,20.90
2019-02-25T08:58:52.999Z,21.10
2019-02-25T09:01:21.425Z,20.17
2019-02-25T09:03:49.885Z,20.77
2019-02-25T09:06:18.349Z,20.57
2019-02-25T09:08:46.761Z,20.07
2019-02-25T09:11:15.348Z,19.53
2019-02-25T09:13:43.746Z,19.27
2019-02-25T09:16:12.151Z,19.20
2019-02-25T09:18:40.555Z,19.03
2019-02-25T09:21:08.985Z,18.40
2019-02-25T09:23:37.386Z,18.47
2019-02-25T09:26:05.792Z,19.23
2019-02-25T09:28:34.194Z,17.70
2019-02-25T09:31:02.634Z,18.20
2019-02-25T09:33:31.085Z,17.53
2019-02-25T09:35:59.488Z,17.13
2019-02-25T09:38:27.933Z,17.67
2019-02-25T09:40:56.332Z,17.43
2019-02-25T09:43:24.815Z,17.17
2019-02-25T09:45:53.220Z,17.47
2019-02-25T09:48:21.647Z,16.67
2019-02-25T09:50:50.061Z,17.90
2019-02-25T09:53:18.495Z,16.57
2019-02-25T09:55:46.904Z,16.47
2019-02-25T09:58:15.337Z,17.10
2019-02-25T10:00:43.739Z,16.43
2019-02-25T10:03:12.161Z,15.97
2019-02-25T10:05:40.570Z,15.20
2019-02-25T10:08:08.999Z,15.80
2019-02-25T10:10:37.407Z,15.43
2019-02-25T10:13:05.848Z,15.37
2019-02-25T10:15:34.241Z,14.90
2019-02-25T10:18:02.647Z,14.80
2019-02-25T10:20:31.094Z,15.17
2019-02-25T10:22:59.500Z,14.90
2019-02-25T10:25:27.905Z,15.37
2019-02-25T10:27:56.309Z,14.33
2019-02-25T10:30:24.709Z,15.60
2019-02-25T10:32:53.110Z,15.27
2019-02-25T10:35:27.248Z,14.80
2019-02-25T10:37:55.694Z,13.67
2019-02-25T10:40:25.357Z,15.17
2019-02-25T10:42:54.229Z,13.57
2019-02-25T10:45:23.466Z,14.20
2019-02-25T10:47:57.536Z,14.30
2019-02-25T10:50:21.996Z,13.83
2019-02-25T10:52:50.397Z,14.00
2019-02-25T10:55:27.818Z,13.57
2019-02-25T10:57:57.616Z,14.23
2019-02-25T11:00:26.553Z,13.03
2019-02-25T11:02:56.425Z,13.30
2019-02-25T11:05:27.700Z,13.10
2019-02-25T11:07:55.366Z,13.77
2019-02-25T11:10:25.467Z,12.77
2019-02-25T11:12:55.501Z,12.50
2019-02-25T11:15:24.354Z,12.50
2019-02-25T11:17:53.899Z,11.87
2019-02-25T11:20:22.930Z,12.80
2019-02-25T11:22:51.377Z,11.33
2019-02-25T11:25:21.476Z,12.10
2019-02-25T11:27:49.946Z,12.10
2019-02-25T11:30:19.363Z,12.10
2019-02-25T11:32:49.589Z,11.67
2019-02-25T11:35:18.885Z,11.23
2019-02-25T11:37:47.336Z,11.27
2019-02-25T11:40:16.966Z,11.27
2019-02-25T11:42:45.398Z,11.77
2019-02-25T11:45:19.133Z,10.67
2019-02-25T11:47:47.561Z,11.13
2019-02-25T11:50:17.612Z,11.00
2019-02-25T11:52:46.039Z,11.53
2019-02-25T11:55:15.590Z,10.57
2019-02-25T11:57:44.071Z,11.10
2019-02-25T12:00:15.728Z,11.27
2019-02-25T12:02:44.152Z,10.77
2019-02-25T12:05:13.028Z,10.33
2019-02-25T12:07:41.475Z,10.30
2019-02-25T12:10:12.024Z,10.57
2019-02-25T12:12:40.419Z,9.67
2019-02-25T12:15:14.782Z,9.97
2019-02-25T12:17:43.216Z,9.47
2019-02-25T12:20:13.744Z,9.67
2019-02-25T12:22:42.143Z,9.77
2019-02-25T12:25:21.447Z,8.80
2019-02-25T12:27:49.863Z,9.40
2019-02-25T12:30:25.490Z,8.97
2019-02-25T12:32:53.904Z,8.90
2019-02-25T12:35:22.313Z,8.93
2019-02-25T12:37:50.712Z,8.73
2019-02-25T12:40:19.174Z,8.63
2019-02-25T12:42:47.576Z,8.50
2019-02-25T12:45:16.238Z,8.97
2019-02-25T12:47:44.623Z,8.47
2019-02-25T12:50:16.916Z,8.47
2019-02-25T12:52:45.311Z,8.33
2019-02-25T12:55:18.881Z,8.07
2019-02-25T12:57:47.273Z,8.73
2019-02-25T13:00:22.575Z,7.90
2019-02-25T13:02:51.028Z,8.37
2019-02-25T13:05:23.445Z,7.77
2019-02-25T13:07:51.833Z,7.77
2019-02-25T13:10:20.218Z,7.43
2019-02-25T13:12:48.641Z,7.47
2019-02-25T13:15:22.078Z,7.70
2019-02-25T13:17:50.470Z,7.23
2019-02-25T13:20:18.879Z,7.30
2019-02-25T13:22:47.685Z,7.33
2019-02-25T13:25:27.919Z,7.00
2019-02-25T13:27:58.300Z,6.97
2019-02-25T13:30:26.473Z,6.67
2019-02-25T13:32:54.865Z,7.20
2019-02-25T13:35:23.303Z,7.60
2019-02-25T13:37:51.698Z,7.17
2019-02-25T13:40:20.090Z,6.33
2019-02-25T13:42:48.483Z,6.87
2019-02-25T13:45:19.285Z,6.83
2019-02-25T13:47:47.673Z,7.07
2019-02-25T13:50:16.984Z,6.10
2019-02-25T13:52:48.193Z,6.70
2019-02-25T13:55:19.476Z,6.60
2019-02-25T13:57:47.873Z,6.17
2019-02-25T14:00:20.812Z,6.57
2019-02-25T14:02:49.205Z,5.77
2019-02-25T14:05:17.642Z,6.40
2019-02-25T14:07:46.043Z,6.43
2019-02-25T14:10:18.266Z,6.30
2019-02-25T14:12:46.664Z,5.67
2019-02-25T14:15:21.043Z,6.53
2019-02-25T14:17:49.441Z,6.13
2019-02-25T14:20:19.708Z,6.20
2019-02-25T14:22:48.106Z,5.80
2019-02-25T14:25:19.931Z,6.20
2019-02-25T14:27:48.423Z,6.60
2019-02-25T14:30:20.019Z,5.90
2019-02-25T14:32:52.920Z,6.00
2019-02-25T14:35:18.603Z,5.73
2019-02-25T14:37:47.065Z,5.77
2019-02-25T14:40:21.637Z,7.07
2019-02-25T14:42:52.031Z,6.20
2019-02-25T14:45:21.882Z,6.33
2019-02-25T14:47:55.353Z,5.60
2019-02-25T14:50:21.572Z,5.87
2019-02-25T14:52:50.098Z,6.27
2019-02-25T14:55:19.543Z,6.60
2019-02-25T14:57:47.932Z,6.50
2019-02-25T15:00:28.346Z,6.67
2019-02-25T15:02:55.116Z,6.60
2019-02-25T15:05:26.531Z,6.00
2019-02-25T15:07:54.927Z,7.13
2019-02-25T15:10:26.597Z,6.50
2019-02-25T15:12:56.529Z,6.83
2019-02-25T15:15:24.300Z,6.93
2019-02-25T15:17:52.869Z,6.40
2019-02-25T15:20:23.452Z,6.80
2019-02-25T15:22:52.428Z,6.83
2019-02-25T15:25:21.292Z,6.33
2019-02-25T15:27:49.679Z,6.77
2019-02-25T15:30:25.672Z,6.93
2019-02-25T15:32:57.113Z,7.03
2019-02-25T15:35:26.419Z,6.97
2019-02-25T15:37:55.434Z,7.50
2019-02-25T15:40:25.510Z,7.30
2019-02-25T15:43:12.609Z,7.50
2019-02-25T15:45:42.528Z,7.63
2019-02-25T15:48:14.502Z,7.50
2019-02-25T15:50:46.129Z,7.43
2019-02-25T15:53:16.041Z,8.30
2019-02-25T15:55:44.094Z,8.07
2019-02-25T15:58:12.771Z,8.23
2019-02-25T16:00:41.268Z,8.50
2019-02-25T16:03:11.180Z,9.20
2019-02-25T16:05:39.822Z,11.07
2019-02-25T16:08:08.227Z,11.83
2019-02-25T16:10:36.672Z,12.67
2019-02-25T16:13:09.886Z,13.83
2019-02-25T16:15:35.515Z,13.40
2019-02-25T16:18:04.061Z,15.00
2019-02-25T16:20:32.742Z,15.73
2019-02-25T16:23:02.796Z,16.33
2019-02-25T16:25:32.176Z,15.90
2019-02-25T16:28:01.125Z,17.07
2019-02-25T16:30:30.776Z,17.97
2019-02-25T16:33:00.099Z,17.73
2019-02-25T16:35:29.528Z,17.20
2019-02-25T16:37:59.926Z,18.53
2019-02-25T16:40:29.132Z,17.37
2019-02-25T16:42:59.674Z,17.47
2019-02-25T16:45:34.566Z,19.53
2019-02-25T16:47:58.508Z,21.00
2019-02-25T16:50:27.111Z,21.00
2019-02-25T16:52:55.583Z,23.07
2019-02-25T16:55:27.496Z,24.23
2019-02-25T16:57:55.316Z,25.30
2019-02-25T17:00:29.369Z,26.13
2019-02-25T17:02:59.239Z,27.60
2019-02-25T17:05:26.542Z,29.10
2019-02-25T17:07:56.106Z,28.43
2019-02-25T17:10:27.059Z,29.37
2019-02-25T17:12:56.006Z,31.10
2019-02-25T17:15:26.916Z,31.80
2019-02-25T17:17:58.410Z,32.40
2019-02-25T17:20:27.805Z,34.87
2019-02-25T17:22:55.444Z,33.20
2019-02-25T17:25:26.967Z,33.77
2019-02-25T17:27:54.030Z,33.47
2019-02-25T17:30:24.128Z,35.93
2019-02-25T17:32:52.650Z,34.97
2019-02-25T17:35:23.556Z,34.70
2019-02-25T17:37:53.253Z,34.07
2019-02-25T17:40:22.035Z,37.73
2019-02-25T17:42:51.656Z,33.43
2019-02-25T17:45:22.417Z,36.17
2019-02-25T17:47:58.205Z,35.83
2019-02-25T17:50:23.290Z,35.07
2019-02-25T17:52:53.267Z,35.40
2019-02-25T17:55:27.236Z,33.37
2019-02-25T17:57:58.603Z,35.17
2019-02-25T18:00:34.998Z,35.43
2019-02-25T18:03:03.782Z,35.03
2019-02-25T18:05:34.122Z,34.90
2019-02-25T18:08:02.977Z,33.10
2019-02-25T18:10:32.595Z,33.30
2019-02-25T18:13:02.680Z,33.97
2019-02-25T18:15:32.914Z,34.07
2019-02-25T18:18:01.380Z,33.10
2019-02-25T18:20:30.038Z,33.30
2019-02-25T18:22:58.726Z,34.77
2019-02-25T18:25:27.202Z,34.63
2019-02-25T18:27:55.647Z,31.93
2019-02-25T18:30:30.194Z,33.10
2019-02-25T18:33:00.993Z,33.67
2019-02-25T18:35:29.023Z,32.70
2019-02-25T18:37:58.513Z,34.93
2019-02-25T18:40:27.963Z,33.33
2019-02-25T18:42:58.059Z,32.87
2019-02-25T18:45:26.930Z,33.53
2019-02-25T18:47:55.446Z,33.33
2019-02-25T18:50:25.939Z,33.77
2019-02-25T18:52:55.011Z,32.97
2019-02-25T18:55:27.101Z,32.93
2019-02-25T18:57:56.335Z,32.13
2019-02-25T19:00:31.842Z,32.77
2019-02-25T19:03:00.852Z,31.57
2019-02-25T19:05:31.466Z,30.70
2019-02-25T19:07:59.972Z,30.37
2019-02-25T19:10:28.534Z,29.37
2019-02-25T19:12:58.663Z,29.67
2019-02-25T19:15:27.154Z,29.03
2019-02-25T19:17:55.558Z,30.20
2019-02-25T19:20:24.932Z,29.60
2019-02-25T19:22:53.345Z,32.93
2019-02-25T19:25:23.077Z,29.23
2019-02-25T19:27:56.055Z,29.77
2019-02-25T19:30:24.860Z,29.10
2019-02-25T19:32:54.517Z,30.40
2019-02-25T19:35:25.815Z,29.80
2019-02-25T19:37:53.447Z,31.07
2019-02-25T19:40:24.616Z,28.57
2019-02-25T19:42:54.250Z,29.30
2019-02-25T19:45:23.500Z,28.37
2019-02-25T19:47:51.986Z,28.83
2019-02-25T19:50:25.363Z,28.63
2019-02-25T19:52:53.694Z,28.13
2019-02-25T19:55:23.468Z,27.87
2019-02-25T19:57:51.982Z,27.20
2019-02-25T20:00:30.277Z,27.70
2019-02-25T20:03:05.617Z,25.53
2019-02-25T20:05:33.091Z,27.03
2019-02-25T20:08:00.869Z,26.60
2019-02-25T20:10:30.650Z,24.00
2019-02-25T20:12:59.592Z,25.13
2019-02-25T20:15:28.017Z,28.47
2019-02-25T20:17:56.424Z,41.07
2019-02-25T20:20:26.493Z,29.20
2019-02-25T20:22:54.927Z,49.83
2019-02-25T20:25:24.647Z,42.10
2019-02-25T20:27:55.130Z,50.00
2019-02-25T20:30:25.732Z,36.83
2019-02-25T20:32:54.089Z,29.17
2019-02-25T20:35:24.370Z,27.07
2019-02-25T20:37:55.518Z,23.53
2019-02-25T20:40:25.532Z,21.90
2019-02-25T20:42:55.908Z,22.53
2019-02-25T20:45:35.341Z,21.13
2019-02-25T20:48:04.320Z,20.27
2019-02-25T20:50:32.955Z,19.63
2019-02-25T20:53:05.497Z,18.30
2019-02-25T20:55:32.210Z,18.50
2019-02-25T20:58:01.690Z,17.47
2019-02-25T21:00:30.137Z,17.93
2019-02-25T21:02:58.572Z,17.60
2019-02-25T21:05:27.437Z,17.20
2019-02-25T21:07:57.928Z,17.40
2019-02-25T21:10:27.897Z,16.40
2019-02-25T21:12:57.098Z,16.63
2019-02-25T21:15:26.469Z,16.33
2019-02-25T21:17:56.824Z,15.80
2019-02-25T21:20:26.221Z,14.93
2019-02-25T21:22:57.835Z,14.60
2019-02-25T21:25:26.749Z,15.90
2019-02-25T21:27:59.203Z,15.67
2019-02-25T21:30:26.120Z,15.57
2019-02-25T21:32:56.468Z,14.90
2019-02-25T21:35:27.570Z,13.70
2019-02-25T21:37:54.859Z,13.53
2019-02-25T21:40:26.854Z,14.33
2019-02-25T21:42:56.366Z,13.43
2019-02-25T21:45:26.899Z,13.13
2019-02-25T21:48:04.824Z,12.90
2019-02-25T21:50:34.002Z,14.77
2019-02-25T21:53:04.900Z,13.83
2019-02-25T21:55:34.463Z,12.87
2019-02-25T21:58:04.865Z,13.20
2019-02-25T22:00:35.875Z,12.57
2019-02-25T22:03:04.505Z,11.23
2019-02-25T22:05:33.337Z,12.30
2019-02-25T22:08:03.662Z,13.20
2019-02-25T22:10:34.068Z,12.27
2019-02-25T22:13:06.717Z,11.10
2019-02-25T22:15:33.870Z,10.83
2019-02-25T22:18:03.937Z,10.37
2019-02-25T22:20:35.640Z,11.87
2019-02-25T22:23:03.567Z,11.17
2019-02-25T22:25:32.684Z,11.37
2019-02-25T22:28:01.693Z,11.00
2019-02-25T22:30:31.255Z,10.70
2019-02-25T22:33:00.681Z,10.37
2019-02-25T22:35:33.091Z,9.73
2019-02-25T22:38:00.512Z,10.27
2019-02-25T22:40:32.036Z,10.70
2019-02-25T22:43:00.156Z,9.20
2019-02-25T22:45:28.556Z,9.17
2019-02-25T22:47:56.950Z,9.60
2019-02-25T22:50:26.996Z,9.27
2019-02-25T22:52:58.226Z,8.67
2019-02-25T22:55:25.606Z,9.20
2019-02-25T22:57:54.223Z,9.93
2019-02-25T23:00:41.624Z,9.63
2019-02-25T23:03:11.077Z,8.37
2019-02-25T23:05:42.979Z,9.50
2019-02-25T23:08:12.796Z,10.33
2019-02-25T23:10:41.976Z,9.93
2019-02-25T23:13:09.734Z,8.30
2019-02-25T23:15:38.135Z,8.57
2019-02-25T23:18:10.095Z,9.37
2019-02-25T23:20:36.668Z,8.83
2019-02-25T23:23:06.699Z,8.77
2019-02-25T23:25:35.188Z,8.43
2019-02-25T23:28:03.577Z,9.57
2019-02-25T23:30:32.010Z,8.53
2019-02-25T23:33:00.409Z,8.80
2019-02-25T23:35:28.852Z,7.80
2019-02-25T23:37:58.621Z,8.60
2019-02-25T23:40:31.286Z,7.37
2019-02-25T23:42:57.555Z,8.23
2019-02-25T23:45:25.984Z,7.17
2019-02-25T23:47:57.616Z,8.07
2019-02-25T23:50:25.687Z,8.00
2019-02-25T23:52:54.730Z,8.10
2019-02-25T23:55:24.956Z,8.23
2019-02-25T23:57:53.409Z,7.40
